sensor_id;sensor_type;location;lat;lon;timestamp;temperature;humidity
75170;SHT31;63749;49.186;9.222;2023-04-03T00:00:07;4.61;66.27
75170;SHT31;63749;49.186;9.222;2023-04-03T00:02:33;4.60;65.85
75170;SHT31;63749;49.186;9.222;2023-04-03T00:04:58;4.64;67.13
75170;SHT31;63749;49.186;9.222;2023-04-03T00:07:24;4.75;66.55
75170;SHT31;63749;49.186;9.222;2023-04-03T00:09:49;4.67;66.02
75170;SHT31;63749;49.186;9.222;2023-04-03T00:12:15;4.58;66.27
75170;SHT31;63749;49.186;9.222;2023-04-03T00:14:40;4.62;66.33
75170;SHT31;63749;49.186;9.222;2023-04-03T00:17:06;4.65;66.53
75170;SHT31;63749;49.186;9.222;2023-04-03T00:19:31;4.61;65.29
75170;SHT31;63749;49.186;9.222;2023-04-03T00:21:57;4.81;66.16
75170;SHT31;63749;49.186;9.222;2023-04-03T00:24:22;4.68;65.02
75170;SHT31;63749;49.186;9.222;2023-04-03T00:26:47;4.65;66.18
75170;SHT31;63749;49.186;9.222;2023-04-03T00:29:13;4.60;65.92
75170;SHT31;63749;49.186;9.222;2023-04-03T00:31:38;4.62;65.50
75170;SHT31;63749;49.186;9.222;2023-04-03T00:34:03;4.51;66.24
75170;SHT31;63749;49.186;9.222;2023-04-03T00:36:29;4.48;66.08
75170;SHT31;63749;49.186;9.222;2023-04-03T00:38:54;4.41;66.43
75170;SHT31;63749;49.186;9.222;2023-04-03T00:41:20;4.44;67.53
75170;SHT31;63749;49.186;9.222;2023-04-03T00:43:46;4.47;66.86
75170;SHT31;63749;49.186;9.222;2023-04-03T00:46:11;4.37;67.26
75170;SHT31;63749;49.186;9.222;2023-04-03T00:48:47;4.32;67.67
75170;SHT31;63749;49.186;9.222;2023-04-03T00:51:20;4.26;67.88
75170;SHT31;63749;49.186;9.222;2023-04-03T00:56:16;4.30;68.12
75170;SHT31;63749;49.186;9.222;2023-04-03T00:58:56;4.26;67.86
75170;SHT31;63749;49.186;9.222;2023-04-03T01:01:26;4.34;67.40
75170;SHT31;63749;49.186;9.222;2023-04-03T01:03:52;4.27;67.11
75170;SHT31;63749;49.186;9.222;2023-04-03T01:06:23;4.29;67.04
75170;SHT31;63749;49.186;9.222;2023-04-03T01:08:50;4.29;67.06
75170;SHT31;63749;49.186;9.222;2023-04-03T01:11:16;4.30;66.98
75170;SHT31;63749;49.186;9.222;2023-04-03T01:13:42;4.37;66.97
75170;SHT31;63749;49.186;9.222;2023-04-03T01:16:07;4.41;67.12
75170;SHT31;63749;49.186;9.222;2023-04-03T01:18:36;4.37;67.02
75170;SHT31;63749;49.186;9.222;2023-04-03T01:24:03;4.40;67.68
75170;SHT31;63749;49.186;9.222;2023-04-03T01:26:30;4.41;67.61
75170;SHT31;63749;49.186;9.222;2023-04-03T01:28:55;4.41;67.80
75170;SHT31;63749;49.186;9.222;2023-04-03T01:34:05;4.38;68.19
75170;SHT31;63749;49.186;9.222;2023-04-03T01:36:31;4.41;67.81
75170;SHT31;63749;49.186;9.222;2023-04-03T01:38:58;4.41;68.09
75170;SHT31;63749;49.186;9.222;2023-04-03T01:41:24;4.43;68.24
75170;SHT31;63749;49.186;9.222;2023-04-03T01:43:51;4.41;68.41
75170;SHT31;63749;49.186;9.222;2023-04-03T01:46:17;4.44;68.15
75170;SHT31;63749;49.186;9.222;2023-04-03T01:48:42;4.44;68.33
75170;SHT31;63749;49.186;9.222;2023-04-03T01:51:08;4.43;68.26
75170;SHT31;63749;49.186;9.222;2023-04-03T01:53:33;4.41;68.27
75170;SHT31;63749;49.186;9.222;2023-04-03T01:55:59;4.41;68.33
75170;SHT31;63749;49.186;9.222;2023-04-03T01:58:24;4.44;68.36
75170;SHT31;63749;49.186;9.222;2023-04-03T02:00:51;4.46;68.38
75170;SHT31;63749;49.186;9.222;2023-04-03T02:03:16;4.41;68.48
75170;SHT31;63749;49.186;9.222;2023-04-03T02:05:41;4.41;68.83
75170;SHT31;63749;49.186;9.222;2023-04-03T02:08:07;4.43;68.83
75170;SHT31;63749;49.186;9.222;2023-04-03T02:10:32;4.46;69.10
75170;SHT31;63749;49.186;9.222;2023-04-03T02:12:58;4.46;68.98
75170;SHT31;63749;49.186;9.222;2023-04-03T02:15:23;4.43;68.87
75170;SHT31;63749;49.186;9.222;2023-04-03T02:17:49;4.44;69.23
75170;SHT31;63749;49.186;9.222;2023-04-03T02:20:14;4.46;69.58
75170;SHT31;63749;49.186;9.222;2023-04-03T02:22:40;4.44;69.19
75170;SHT31;63749;49.186;9.222;2023-04-03T02:25:05;4.48;69.44
75170;SHT31;63749;49.186;9.222;2023-04-03T02:27:31;4.41;69.71
75170;SHT31;63749;49.186;9.222;2023-04-03T02:29:57;4.43;69.61
75170;SHT31;63749;49.186;9.222;2023-04-03T02:32:22;4.44;69.88
75170;SHT31;63749;49.186;9.222;2023-04-03T02:34:48;4.38;69.82
75170;SHT31;63749;49.186;9.222;2023-04-03T02:37:13;4.37;70.05
75170;SHT31;63749;49.186;9.222;2023-04-03T02:39:39;4.37;70.31
75170;SHT31;63749;49.186;9.222;2023-04-03T02:42:04;4.32;70.00
75170;SHT31;63749;49.186;9.222;2023-04-03T02:44:29;4.30;69.89
75170;SHT31;63749;49.186;9.222;2023-04-03T02:46:55;4.26;69.65
75170;SHT31;63749;49.186;9.222;2023-04-03T02:49:20;4.23;69.89
75170;SHT31;63749;49.186;9.222;2023-04-03T02:51:45;4.24;70.01
75170;SHT31;63749;49.186;9.222;2023-04-03T02:54:11;4.23;70.08
75170;SHT31;63749;49.186;9.222;2023-04-03T02:56:36;4.24;70.52
75170;SHT31;63749;49.186;9.222;2023-04-03T02:59:02;4.24;69.86
75170;SHT31;63749;49.186;9.222;2023-04-03T03:01:27;4.20;69.55
75170;SHT31;63749;49.186;9.222;2023-04-03T03:03:56;4.16;69.61
75170;SHT31;63749;49.186;9.222;2023-04-03T03:06:22;4.18;69.84
75170;SHT31;63749;49.186;9.222;2023-04-03T03:08:47;4.16;71.06
75170;SHT31;63749;49.186;9.222;2023-04-03T03:11:12;4.10;70.35
75170;SHT31;63749;49.186;9.222;2023-04-03T03:13:38;4.00;70.31
75170;SHT31;63749;49.186;9.222;2023-04-03T03:16:04;3.90;70.35
75170;SHT31;63749;49.186;9.222;2023-04-03T03:18:29;3.69;71.51
75170;SHT31;63749;49.186;9.222;2023-04-03T03:20:57;3.57;72.10
75170;SHT31;63749;49.186;9.222;2023-04-03T03:23:25;3.35;72.63
75170;SHT31;63749;49.186;9.222;2023-04-03T03:25:58;3.26;72.88
75170;SHT31;63749;49.186;9.222;2023-04-03T03:28:24;3.18;73.26
75170;SHT31;63749;49.186;9.222;2023-04-03T03:30:50;3.14;73.20
75170;SHT31;63749;49.186;9.222;2023-04-03T03:33:16;3.13;72.62
75170;SHT31;63749;49.186;9.222;2023-04-03T03:35:42;3.07;72.81
75170;SHT31;63749;49.186;9.222;2023-04-03T03:38:08;3.03;72.99
75170;SHT31;63749;49.186;9.222;2023-04-03T03:40:33;3.01;73.07
75170;SHT31;63749;49.186;9.222;2023-04-03T03:42:58;2.93;73.33
75170;SHT31;63749;49.186;9.222;2023-04-03T03:45:24;2.83;73.39
75170;SHT31;63749;49.186;9.222;2023-04-03T03:47:50;2.80;73.55
75170;SHT31;63749;49.186;9.222;2023-04-03T03:50:15;2.79;74.03
75170;SHT31;63749;49.186;9.222;2023-04-03T03:52:41;2.63;74.51
75170;SHT31;63749;49.186;9.222;2023-04-03T03:55:06;2.59;74.70
75170;SHT31;63749;49.186;9.222;2023-04-03T03:57:32;2.58;74.84
75170;SHT31;63749;49.186;9.222;2023-04-03T03:59:57;2.59;74.90
75170;SHT31;63749;49.186;9.222;2023-04-03T04:02:23;2.60;74.56
75170;SHT31;63749;49.186;9.222;2023-04-03T04:04:48;2.62;74.65
75170;SHT31;63749;49.186;9.222;2023-04-03T04:07:14;2.49;75.09
75170;SHT31;63749;49.186;9.222;2023-04-03T04:09:39;2.39;75.51
75170;SHT31;63749;49.186;9.222;2023-04-03T04:12:05;2.39;75.39
75170;SHT31;63749;49.186;9.222;2023-04-03T04:14:31;2.37;75.60
75170;SHT31;63749;49.186;9.222;2023-04-03T04:16:56;2.39;75.08
75170;SHT31;63749;49.186;9.222;2023-04-03T04:19:21;2.35;74.90
75170;SHT31;63749;49.186;9.222;2023-04-03T04:21:47;2.32;75.19
75170;SHT31;63749;49.186;9.222;2023-04-03T04:24:12;2.35;75.15
75170;SHT31;63749;49.186;9.222;2023-04-03T04:26:37;2.37;74.77
75170;SHT31;63749;49.186;9.222;2023-04-03T04:29:03;2.35;74.88
75170;SHT31;63749;49.186;9.222;2023-04-03T04:31:28;2.31;75.24
75170;SHT31;63749;49.186;9.222;2023-04-03T04:33:54;2.28;75.28
75170;SHT31;63749;49.186;9.222;2023-04-03T04:36:19;2.21;75.43
75170;SHT31;63749;49.186;9.222;2023-04-03T04:38:44;2.15;75.42
75170;SHT31;63749;49.186;9.222;2023-04-03T04:41:10;2.13;75.38
75170;SHT31;63749;49.186;9.222;2023-04-03T04:43:35;2.10;75.57
75170;SHT31;63749;49.186;9.222;2023-04-03T04:46:07;2.04;75.81
75170;SHT31;63749;49.186;9.222;2023-04-03T04:48:34;1.97;76.23
75170;SHT31;63749;49.186;9.222;2023-04-03T04:50:59;1.96;76.50
75170;SHT31;63749;49.186;9.222;2023-04-03T04:53:25;1.94;76.87
75170;SHT31;63749;49.186;9.222;2023-04-03T04:55:51;1.93;76.72
75170;SHT31;63749;49.186;9.222;2023-04-03T04:58:17;1.93;77.18
75170;SHT31;63749;49.186;9.222;2023-04-03T05:00:42;1.87;77.42
75170;SHT31;63749;49.186;9.222;2023-04-03T05:03:07;1.87;77.42
75170;SHT31;63749;49.186;9.222;2023-04-03T05:05:33;1.88;77.64
75170;SHT31;63749;49.186;9.222;2023-04-03T05:07:59;1.84;77.32
75170;SHT31;63749;49.186;9.222;2023-04-03T05:10:24;1.84;77.27
75170;SHT31;63749;49.186;9.222;2023-04-03T05:12:50;1.88;77.96
75170;SHT31;63749;49.186;9.222;2023-04-03T05:15:15;1.90;78.28
75170;SHT31;63749;49.186;9.222;2023-04-03T05:17:41;1.88;77.33
75170;SHT31;63749;49.186;9.222;2023-04-03T05:20:06;1.96;77.14
75170;SHT31;63749;49.186;9.222;2023-04-03T05:22:32;1.98;77.35
75170;SHT31;63749;49.186;9.222;2023-04-03T05:24:58;2.04;77.18
75170;SHT31;63749;49.186;9.222;2023-04-03T05:27:23;2.07;77.43
75170;SHT31;63749;49.186;9.222;2023-04-03T05:29:49;2.07;77.47
75170;SHT31;63749;49.186;9.222;2023-04-03T05:32:15;2.07;77.18
75170;SHT31;63749;49.186;9.222;2023-04-03T05:34:40;2.07;77.54
75170;SHT31;63749;49.186;9.222;2023-04-03T05:37:05;2.10;78.09
75170;SHT31;63749;49.186;9.222;2023-04-03T05:39:33;2.08;77.70
75170;SHT31;63749;49.186;9.222;2023-04-03T05:41:59;2.17;77.57
75170;SHT31;63749;49.186;9.222;2023-04-03T05:44:25;2.27;76.92
75170;SHT31;63749;49.186;9.222;2023-04-03T05:46:50;2.32;76.41
75170;SHT31;63749;49.186;9.222;2023-04-03T05:49:15;2.46;76.70
75170;SHT31;63749;49.186;9.222;2023-04-03T05:51:41;2.62;76.01
75170;SHT31;63749;49.186;9.222;2023-04-03T05:54:13;2.73;75.88
75170;SHT31;63749;49.186;9.222;2023-04-03T05:56:40;2.86;76.05
75170;SHT31;63749;49.186;9.222;2023-04-03T05:59:06;3.00;75.08
75170;SHT31;63749;49.186;9.222;2023-04-03T06:01:32;3.42;78.41
75170;SHT31;63749;49.186;9.222;2023-04-03T06:03:59;3.68;73.60
75170;SHT31;63749;49.186;9.222;2023-04-03T06:06:24;3.75;73.75
75170;SHT31;63749;49.186;9.222;2023-04-03T06:08:50;3.72;73.11
75170;SHT31;63749;49.186;9.222;2023-04-03T06:11:15;3.75;72.92
75170;SHT31;63749;49.186;9.222;2023-04-03T06:13:41;3.68;72.85
75170;SHT31;63749;49.186;9.222;2023-04-03T06:16:09;3.81;73.43
75170;SHT31;63749;49.186;9.222;2023-04-03T06:18:36;3.86;72.90
75170;SHT31;63749;49.186;9.222;2023-04-03T06:21:02;3.90;72.75
75170;SHT31;63749;49.186;9.222;2023-04-03T06:23:28;4.26;81.77
75170;SHT31;63749;49.186;9.222;2023-04-03T06:25:53;4.67;76.41
75170;SHT31;63749;49.186;9.222;2023-04-03T06:28:19;4.46;73.46
75170;SHT31;63749;49.186;9.222;2023-04-03T06:30:45;4.78;82.05
75170;SHT31;63749;49.186;9.222;2023-04-03T06:33:10;4.68;76.97
75170;SHT31;63749;49.186;9.222;2023-04-03T06:35:36;5.08;76.61
75170;SHT31;63749;49.186;9.222;2023-04-03T06:38:03;4.76;72.09
75170;SHT31;63749;49.186;9.222;2023-04-03T06:40:34;4.69;73.14
75170;SHT31;63749;49.186;9.222;2023-04-03T06:43:00;4.69;71.88
75170;SHT31;63749;49.186;9.222;2023-04-03T06:45:26;4.93;76.20
75170;SHT31;63749;49.186;9.222;2023-04-03T06:47:53;4.96;74.30
75170;SHT31;63749;49.186;9.222;2023-04-03T06:50:19;5.04;74.25
75170;SHT31;63749;49.186;9.222;2023-04-03T06:52:44;5.16;76.24
75170;SHT31;63749;49.186;9.222;2023-04-03T06:55:10;5.13;73.05
75170;SHT31;63749;49.186;9.222;2023-04-03T06:57:36;5.13;72.54
75170;SHT31;63749;49.186;9.222;2023-04-03T07:00:03;5.27;73.73
75170;SHT31;63749;49.186;9.222;2023-04-03T07:02:29;5.43;73.96
75170;SHT31;63749;49.186;9.222;2023-04-03T07:04:54;5.60;71.61
75170;SHT31;63749;49.186;9.222;2023-04-03T07:07:20;5.79;73.29
75170;SHT31;63749;49.186;9.222;2023-04-03T07:09:45;5.65;70.70
75170;SHT31;63749;49.186;9.222;2023-04-03T07:12:13;5.87;73.30
75170;SHT31;63749;49.186;9.222;2023-04-03T07:14:38;6.02;72.46
75170;SHT31;63749;49.186;9.222;2023-04-03T07:17:03;6.04;70.32
75170;SHT31;63749;49.186;9.222;2023-04-03T07:19:29;5.90;68.59
75170;SHT31;63749;49.186;9.222;2023-04-03T07:21:54;6.05;69.59
75170;SHT31;63749;49.186;9.222;2023-04-03T07:24:20;6.24;70.32
75170;SHT31;63749;49.186;9.222;2023-04-03T07:26:49;6.28;69.80
75170;SHT31;63749;49.186;9.222;2023-04-03T07:29:14;6.33;68.62
75170;SHT31;63749;49.186;9.222;2023-04-03T07:31:40;6.29;68.25
75170;SHT31;63749;49.186;9.222;2023-04-03T07:34:06;6.84;67.48
75170;SHT31;63749;49.186;9.222;2023-04-03T07:36:31;7.00;65.27
75170;SHT31;63749;49.186;9.222;2023-04-03T07:38:58;6.88;65.04
75170;SHT31;63749;49.186;9.222;2023-04-03T07:41:24;6.95;65.88
75170;SHT31;63749;49.186;9.222;2023-04-03T07:43:49;7.08;64.84
75170;SHT31;63749;49.186;9.222;2023-04-03T07:46:15;7.67;64.23
75170;SHT31;63749;49.186;9.222;2023-04-03T07:48:42;7.84;64.59
75170;SHT31;63749;49.186;9.222;2023-04-03T07:51:09;8.31;62.59
75170;SHT31;63749;49.186;9.222;2023-04-03T07:53:34;8.58;62.37
75170;SHT31;63749;49.186;9.222;2023-04-03T07:56:00;8.30;60.66
75170;SHT31;63749;49.186;9.222;2023-04-03T07:58:27;8.45;58.19
75170;SHT31;63749;49.186;9.222;2023-04-03T08:00:53;8.68;58.64
75170;SHT31;63749;49.186;9.222;2023-04-03T08:03:18;8.03;57.63
75170;SHT31;63749;49.186;9.222;2023-04-03T08:05:46;7.94;59.39
75170;SHT31;63749;49.186;9.222;2023-04-03T08:08:13;7.63;58.27
75170;SHT31;63749;49.186;9.222;2023-04-03T08:10:39;7.42;58.94
75170;SHT31;63749;49.186;9.222;2023-04-03T08:13:05;7.22;57.83
75170;SHT31;63749;49.186;9.222;2023-04-03T08:15:31;7.36;59.13
75170;SHT31;63749;49.186;9.222;2023-04-03T08:17:57;7.79;58.84
75170;SHT31;63749;49.186;9.222;2023-04-03T08:20:22;7.82;58.58
75170;SHT31;63749;49.186;9.222;2023-04-03T08:22:48;7.79;59.05
75170;SHT31;63749;49.186;9.222;2023-04-03T08:25:13;7.73;58.87
75170;SHT31;63749;49.186;9.222;2023-04-03T08:27:39;7.67;58.63
75170;SHT31;63749;49.186;9.222;2023-04-03T08:30:05;7.43;58.68
75170;SHT31;63749;49.186;9.222;2023-04-03T08:32:33;7.56;58.30
75170;SHT31;63749;49.186;9.222;2023-04-03T08:34:59;7.56;59.05
75170;SHT31;63749;49.186;9.222;2023-04-03T08:37:25;7.41;59.63
75170;SHT31;63749;49.186;9.222;2023-04-03T08:39:50;7.41;58.00
75170;SHT31;63749;49.186;9.222;2023-04-03T08:42:30;7.52;59.15
75170;SHT31;63749;49.186;9.222;2023-04-03T08:48:08;7.67;56.39
75170;SHT31;63749;49.186;9.222;2023-04-03T08:50:43;7.76;58.24
75170;SHT31;63749;49.186;9.222;2023-04-03T08:53:20;7.90;57.87
75170;SHT31;63749;49.186;9.222;2023-04-03T08:55:48;7.98;57.68
75170;SHT31;63749;49.186;9.222;2023-04-03T08:58:21;7.79;56.74
75170;SHT31;63749;49.186;9.222;2023-04-03T09:00:59;7.83;56.70
75170;SHT31;63749;49.186;9.222;2023-04-03T09:03:30;7.82;56.22
75170;SHT31;63749;49.186;9.222;2023-04-03T09:08:24;7.35;57.89
75170;SHT31;63749;49.186;9.222;2023-04-03T09:10:58;7.80;57.09
75170;SHT31;63749;49.186;9.222;2023-04-03T09:13:30;7.95;55.71
75170;SHT31;63749;49.186;9.222;2023-04-03T09:16:02;8.05;56.53
75170;SHT31;63749;49.186;9.222;2023-04-03T09:18:32;8.58;54.52
75170;SHT31;63749;49.186;9.222;2023-04-03T09:23:45;8.45;54.22
75170;SHT31;63749;49.186;9.222;2023-04-03T09:26:17;8.42;53.54
75170;SHT31;63749;49.186;9.222;2023-04-03T09:28:45;8.45;53.34
75170;SHT31;63749;49.186;9.222;2023-04-03T09:33:42;9.03;53.77
75170;SHT31;63749;49.186;9.222;2023-04-03T09:36:07;9.12;54.00
75170;SHT31;63749;49.186;9.222;2023-04-03T09:38:32;9.24;52.19
75170;SHT31;63749;49.186;9.222;2023-04-03T09:41:06;8.94;52.06
75170;SHT31;63749;49.186;9.222;2023-04-03T09:43:33;8.71;52.97
75170;SHT31;63749;49.186;9.222;2023-04-03T09:46:28;8.77;52.45
75170;SHT31;63749;49.186;9.222;2023-04-03T09:49:02;9.26;53.29
75170;SHT31;63749;49.186;9.222;2023-04-03T09:51:29;9.52;53.55
75170;SHT31;63749;49.186;9.222;2023-04-03T09:53:55;9.40;50.55
75170;SHT31;63749;49.186;9.222;2023-04-03T09:56:27;9.12;51.39
75170;SHT31;63749;49.186;9.222;2023-04-03T09:59:08;9.10;51.65
75170;SHT31;63749;49.186;9.222;2023-04-03T10:01:41;8.38;52.60
75170;SHT31;63749;49.186;9.222;2023-04-03T10:06:38;8.84;53.31
75170;SHT31;63749;49.186;9.222;2023-04-03T10:12:11;9.44;52.68
75170;SHT31;63749;49.186;9.222;2023-04-03T10:14:57;9.71;49.94
75170;SHT31;63749;49.186;9.222;2023-04-03T10:20:18;9.37;49.81
75170;SHT31;63749;49.186;9.222;2023-04-03T10:26:13;9.33;49.75
75170;SHT31;63749;49.186;9.222;2023-04-03T10:31:37;10.01;49.31
75170;SHT31;63749;49.186;9.222;2023-04-03T10:39:30;10.13;48.21
75170;SHT31;63749;49.186;9.222;2023-04-03T10:42:15;10.16;47.33
75170;SHT31;63749;49.186;9.222;2023-04-03T10:47:20;10.22;48.36
75170;SHT31;63749;49.186;9.222;2023-04-03T10:52:45;10.29;47.99
75170;SHT31;63749;49.186;9.222;2023-04-03T10:57:39;10.02;45.49
75170;SHT31;63749;49.186;9.222;2023-04-03T11:00:21;9.85;44.19
75170;SHT31;63749;49.186;9.222;2023-04-03T11:03:03;10.12;46.13
75170;SHT31;63749;49.186;9.222;2023-04-03T11:05:43;10.10;45.46
75170;SHT31;63749;49.186;9.222;2023-04-03T11:08:17;10.36;44.19
75170;SHT31;63749;49.186;9.222;2023-04-03T11:10:49;9.85;43.10
75170;SHT31;63749;49.186;9.222;2023-04-03T11:13:20;10.01;44.04
75170;SHT31;63749;49.186;9.222;2023-04-03T11:15:46;9.75;44.54
75170;SHT31;63749;49.186;9.222;2023-04-03T11:18:22;9.22;44.47
75170;SHT31;63749;49.186;9.222;2023-04-03T11:21:00;9.28;43.74
75170;SHT31;63749;49.186;9.222;2023-04-03T11:23:31;9.55;44.07
75170;SHT31;63749;49.186;9.222;2023-04-03T11:26:07;9.57;43.83
75170;SHT31;63749;49.186;9.222;2023-04-03T11:28:33;9.93;42.99
75170;SHT31;63749;49.186;9.222;2023-04-03T11:34:20;9.81;44.53
75170;SHT31;63749;49.186;9.222;2023-04-03T11:36:55;9.61;44.92
75170;SHT31;63749;49.186;9.222;2023-04-03T11:39:36;9.72;45.66
75170;SHT31;63749;49.186;9.222;2023-04-03T11:42:30;9.64;45.45
75170;SHT31;63749;49.186;9.222;2023-04-03T11:47:44;9.54;45.17
75170;SHT31;63749;49.186;9.222;2023-04-03T12:05:49;10.10;43.28
75170;SHT31;63749;49.186;9.222;2023-04-03T12:08:26;10.36;42.90
75170;SHT31;63749;49.186;9.222;2023-04-03T12:16:02;10.03;43.66
75170;SHT31;63749;49.186;9.222;2023-04-03T12:26:51;9.74;43.39
75170;SHT31;63749;49.186;9.222;2023-04-03T12:29:35;9.61;43.99
75170;SHT31;63749;49.186;9.222;2023-04-03T12:32:08;9.98;44.15
75170;SHT31;63749;49.186;9.222;2023-04-03T12:40:05;11.00;40.88
75170;SHT31;63749;49.186;9.222;2023-04-03T12:45:49;10.49;40.58
75170;SHT31;63749;49.186;9.222;2023-04-03T12:48:19;10.14;41.59
75170;SHT31;63749;49.186;9.222;2023-04-03T12:50:49;10.70;41.50
75170;SHT31;63749;49.186;9.222;2023-04-03T12:53:31;10.80;42.22
75170;SHT31;63749;49.186;9.222;2023-04-03T12:56:20;10.65;42.25
75170;SHT31;63749;49.186;9.222;2023-04-03T12:58:47;10.78;41.86
75170;SHT31;63749;49.186;9.222;2023-04-03T13:01:18;11.53;39.91
75170;SHT31;63749;49.186;9.222;2023-04-03T13:03:48;11.07;40.04
75170;SHT31;63749;49.186;9.222;2023-04-03T13:06:23;11.60;40.29
75170;SHT31;63749;49.186;9.222;2023-04-03T13:08:53;12.99;36.61
75170;SHT31;63749;49.186;9.222;2023-04-03T13:11:20;14.02;33.10
75170;SHT31;63749;49.186;9.222;2023-04-03T13:14:01;14.88;33.17
75170;SHT31;63749;49.186;9.222;2023-04-03T13:16:28;13.64;34.46
75170;SHT31;63749;49.186;9.222;2023-04-03T13:18:55;14.04;34.22
75170;SHT31;63749;49.186;9.222;2023-04-03T13:21:29;13.99;34.12
75170;SHT31;63749;49.186;9.222;2023-04-03T13:23:58;13.27;35.52
75170;SHT31;63749;49.186;9.222;2023-04-03T13:26:28;11.80;37.59
75170;SHT31;63749;49.186;9.222;2023-04-03T13:29:03;11.25;38.61
75170;SHT31;63749;49.186;9.222;2023-04-03T13:31:32;11.21;38.11
75170;SHT31;63749;49.186;9.222;2023-04-03T13:36:59;14.37;32.51
75170;SHT31;63749;49.186;9.222;2023-04-03T13:39:28;15.90;29.80
75170;SHT31;63749;49.186;9.222;2023-04-03T13:41:58;16.73;28.76
75170;SHT31;63749;49.186;9.222;2023-04-03T13:44:35;14.87;29.62
75170;SHT31;63749;49.186;9.222;2023-04-03T13:49:33;15.69;29.29
75170;SHT31;63749;49.186;9.222;2023-04-03T13:52:00;16.66;27.22
75170;SHT31;63749;49.186;9.222;2023-04-03T13:54:33;16.42;27.11
75170;SHT31;63749;49.186;9.222;2023-04-03T13:57:01;16.80;26.99
75170;SHT31;63749;49.186;9.222;2023-04-03T13:59:32;17.02;26.50
75170;SHT31;63749;49.186;9.222;2023-04-03T14:06:54;18.58;25.87
75170;SHT31;63749;49.186;9.222;2023-04-03T14:09:21;18.87;23.61
75170;SHT31;63749;49.186;9.222;2023-04-03T14:11:49;19.40;23.20
75170;SHT31;63749;49.186;9.222;2023-04-03T14:14:23;18.88;23.85
75170;SHT31;63749;49.186;9.222;2023-04-03T14:16:53;19.40;24.22
75170;SHT31;63749;49.186;9.222;2023-04-03T14:19:23;19.57;22.75
75170;SHT31;63749;49.186;9.222;2023-04-03T14:21:50;18.08;24.74
75170;SHT31;63749;49.186;9.222;2023-04-03T14:24:16;18.23;24.93
75170;SHT31;63749;49.186;9.222;2023-04-03T14:26:43;19.18;23.51
75170;SHT31;63749;49.186;9.222;2023-04-03T14:29:10;17.55;24.48
75170;SHT31;63749;49.186;9.222;2023-04-03T14:31:36;17.98;24.20
75170;SHT31;63749;49.186;9.222;2023-04-03T14:34:01;17.82;24.53
75170;SHT31;63749;49.186;9.222;2023-04-03T14:36:28;19.49;22.51
75170;SHT31;63749;49.186;9.222;2023-04-03T14:38:55;18.99;22.07
75170;SHT31;63749;49.186;9.222;2023-04-03T14:41:23;18.53;23.71
75170;SHT31;63749;49.186;9.222;2023-04-03T14:43:49;17.79;23.48
75170;SHT31;63749;49.186;9.222;2023-04-03T14:46:36;19.42;22.84
75170;SHT31;63749;49.186;9.222;2023-04-03T14:49:03;18.44;24.21
75170;SHT31;63749;49.186;9.222;2023-04-03T14:51:33;15.50;26.75
75170;SHT31;63749;49.186;9.222;2023-04-03T14:53:59;13.43;31.01
75170;SHT31;63749;49.186;9.222;2023-04-03T14:56:27;13.71;30.49
75170;SHT31;63749;49.186;9.222;2023-04-03T14:58:55;15.76;28.04
75170;SHT31;63749;49.186;9.222;2023-04-03T15:01:21;17.20;26.06
75170;SHT31;63749;49.186;9.222;2023-04-03T15:03:47;17.55;25.57
75170;SHT31;63749;49.186;9.222;2023-04-03T15:06:13;17.77;24.33
75170;SHT31;63749;49.186;9.222;2023-04-03T15:08:39;17.42;25.23
75170;SHT31;63749;49.186;9.222;2023-04-03T15:11:07;18.32;23.19
75170;SHT31;63749;49.186;9.222;2023-04-03T15:13:32;18.88;23.60
75170;SHT31;63749;49.186;9.222;2023-04-03T15:15:58;17.32;25.07
75170;SHT31;63749;49.186;9.222;2023-04-03T15:18:26;18.02;24.05
75170;SHT31;63749;49.186;9.222;2023-04-03T15:20:53;18.10;24.18
75170;SHT31;63749;49.186;9.222;2023-04-03T15:23:18;17.20;25.86
75170;SHT31;63749;49.186;9.222;2023-04-03T15:25:46;17.67;25.27
75170;SHT31;63749;49.186;9.222;2023-04-03T15:28:23;17.48;25.00
75170;SHT31;63749;49.186;9.222;2023-04-03T15:30:50;16.20;27.46
75170;SHT31;63749;49.186;9.222;2023-04-03T15:33:16;16.48;25.91
75170;SHT31;63749;49.186;9.222;2023-04-03T15:35:42;17.26;25.37
75170;SHT31;63749;49.186;9.222;2023-04-03T15:38:08;14.68;28.64
75170;SHT31;63749;49.186;9.222;2023-04-03T15:40:33;13.33;30.79
75170;SHT31;63749;49.186;9.222;2023-04-03T15:42:58;12.73;32.36
75170;SHT31;63749;49.186;9.222;2023-04-03T15:45:24;11.90;32.82
75170;SHT31;63749;49.186;9.222;2023-04-03T15:47:50;12.72;32.69
75170;SHT31;63749;49.186;9.222;2023-04-03T15:50:16;14.53;29.74
75170;SHT31;63749;49.186;9.222;2023-04-03T15:52:41;15.31;27.84
75170;SHT31;63749;49.186;9.222;2023-04-03T15:55:07;16.24;27.60
75170;SHT31;63749;49.186;9.222;2023-04-03T15:57:32;16.14;26.51
75170;SHT31;63749;49.186;9.222;2023-04-03T15:59:57;17.41;26.65
75170;SHT31;63749;49.186;9.222;2023-04-03T16:02:23;17.04;25.82
75170;SHT31;63749;49.186;9.222;2023-04-03T16:04:49;16.56;26.54
75170;SHT31;63749;49.186;9.222;2023-04-03T16:07:15;13.78;30.11
75170;SHT31;63749;49.186;9.222;2023-04-03T16:09:40;14.89;28.95
75170;SHT31;63749;49.186;9.222;2023-04-03T16:12:06;14.22;30.31
75170;SHT31;63749;49.186;9.222;2023-04-03T16:14:31;12.46;32.00
75170;SHT31;63749;49.186;9.222;2023-04-03T16:16:57;11.00;34.33
75170;SHT31;63749;49.186;9.222;2023-04-03T16:19:23;12.21;33.15
75170;SHT31;63749;49.186;9.222;2023-04-03T16:21:49;13.99;30.36
75170;SHT31;63749;49.186;9.222;2023-04-03T16:24:15;14.87;28.70
75170;SHT31;63749;49.186;9.222;2023-04-03T16:26:40;15.21;27.97
75170;SHT31;63749;49.186;9.222;2023-04-03T16:29:06;15.01;28.69
75170;SHT31;63749;49.186;9.222;2023-04-03T16:31:32;15.29;29.97
75170;SHT31;63749;49.186;9.222;2023-04-03T16:33:58;15.19;28.34
75170;SHT31;63749;49.186;9.222;2023-04-03T16:36:25;14.36;28.77
75170;SHT31;63749;49.186;9.222;2023-04-03T16:38:51;12.10;32.46
75170;SHT31;63749;49.186;9.222;2023-04-03T16:41:16;10.80;34.64
75170;SHT31;63749;49.186;9.222;2023-04-03T16:43:42;10.13;36.58
75170;SHT31;63749;49.186;9.222;2023-04-03T16:46:07;10.34;36.00
75170;SHT31;63749;49.186;9.222;2023-04-03T16:48:33;12.18;34.14
75170;SHT31;63749;49.186;9.222;2023-04-03T16:50:58;13.17;30.64
75170;SHT31;63749;49.186;9.222;2023-04-03T16:53:25;13.92;30.45
75170;SHT31;63749;49.186;9.222;2023-04-03T16:55:50;13.98;29.09
75170;SHT31;63749;49.186;9.222;2023-04-03T16:58:16;14.38;29.49
75170;SHT31;63749;49.186;9.222;2023-04-03T17:00:42;14.41;29.03
75170;SHT31;63749;49.186;9.222;2023-04-03T17:03:07;13.81;30.22
75170;SHT31;63749;49.186;9.222;2023-04-03T17:05:33;13.21;31.56
75170;SHT31;63749;49.186;9.222;2023-04-03T17:07:58;12.89;32.67
75170;SHT31;63749;49.186;9.222;2023-04-03T17:10:24;12.11;32.46
75170;SHT31;63749;49.186;9.222;2023-04-03T17:12:50;11.50;33.32
75170;SHT31;63749;49.186;9.222;2023-04-03T17:15:15;10.81;34.27
75170;SHT31;63749;49.186;9.222;2023-04-03T17:17:40;11.00;35.48
75170;SHT31;63749;49.186;9.222;2023-04-03T17:20:06;11.01;34.21
75170;SHT31;63749;49.186;9.222;2023-04-03T17:22:32;10.63;34.78